Weather at Cegléd

Public forecast

Using degrees Celsius for public forecast. Weather courtesy of forecast.io.

Closest aviation weather report (METAR) to Cegléd

Closest report is Szolnok Air Base, 14.8 nm (27.3 km) E.

2022/12/04 12:15 (retrieved 41 minutes ago)

LHSN 041215Z 08006KT 1500 BR BKN002 BKN200 04/04 Q1022 TEMPO 3000 BR RMK AMB

Closest aviation forecast (TAF) to Cegléd

Closest forecast is Budapest Liszt Ferenc International Airport, 29.9 nm (55.3 km) WNW.

2022/12/04 12:27 (retrieved 29 minutes ago)

TAF TAF LHBP 041115Z 0412/0512 09009KT CAVOK BECMG 0413/0415 SCT020 BKN070 TEMPO 0415/0423 4000 -RA -SHRA BKN007 OVC020 BECMG 0423/0501 12005KT 5000 BR SCT005 OVC020 TEMPO 0501/0509 1500 BCFG BR OVC004 BECMG 0509/0512 8000 NSW